sensor_id;sensor_type;location;lat;lon;timestamp;pressure;altitude;pressure_sealevel;temperature;humidity
50011;BME280;35899;50.352;19.390;2023-04-28T00:00:46;98216.39;;;3.40;66.41
50011;BME280;35899;50.352;19.390;2023-04-28T00:03:18;98211.45;;;3.40;66.17
50011;BME280;35899;50.352;19.390;2023-04-28T00:05:45;98211.00;;;3.38;66.13
50011;BME280;35899;50.352;19.390;2023-04-28T00:08:11;98210.66;;;3.38;66.01
50011;BME280;35899;50.352;19.390;2023-04-28T00:10:38;98210.56;;;3.41;66.18
50011;BME280;35899;50.352;19.390;2023-04-28T00:13:05;98211.81;;;3.44;66.31
50011;BME280;35899;50.352;19.390;2023-04-28T00:15:32;98209.45;;;3.47;66.36
50011;BME280;35899;50.352;19.390;2023-04-28T00:17:58;98209.45;;;3.52;66.42
50011;BME280;35899;50.352;19.390;2023-04-28T00:20:25;98209.29;;;3.57;66.17
50011;BME280;35899;50.352;19.390;2023-04-28T00:22:51;98208.57;;;3.53;66.07
50011;BME280;35899;50.352;19.390;2023-04-28T00:25:18;98210.92;;;3.45;66.14
50011;BME280;35899;50.352;19.390;2023-04-28T00:27:45;98210.45;;;3.39;66.11
50011;BME280;35899;50.352;19.390;2023-04-28T00:30:11;98208.71;;;3.35;66.64
50011;BME280;35899;50.352;19.390;2023-04-28T00:32:38;98209.37;;;3.31;66.56
50011;BME280;35899;50.352;19.390;2023-04-28T00:35:04;98208.29;;;3.33;66.77
50011;BME280;35899;50.352;19.390;2023-04-28T00:37:34;98207.05;;;3.34;66.80
50011;BME280;35899;50.352;19.390;2023-04-28T00:40:00;98205.17;;;3.33;66.97
50011;BME280;35899;50.352;19.390;2023-04-28T00:42:27;98204.84;;;3.33;67.13
50011;BME280;35899;50.352;19.390;2023-04-28T00:44:54;98208.38;;;3.35;67.22
50011;BME280;35899;50.352;19.390;2023-04-28T00:47:21;98208.09;;;3.38;67.16
50011;BME280;35899;50.352;19.390;2023-04-28T00:49:47;98209.89;;;3.40;67.28
50011;BME280;35899;50.352;19.390;2023-04-28T00:52:14;98204.14;;;3.43;67.25
50011;BME280;35899;50.352;19.390;2023-04-28T00:54:41;98204.84;;;3.43;67.71
50011;BME280;35899;50.352;19.390;2023-04-28T00:57:08;98211.73;;;3.41;67.45
50011;BME280;35899;50.352;19.390;2023-04-28T00:59:35;98208.04;;;3.40;67.62
50011;BME280;35899;50.352;19.390;2023-04-28T01:02:02;98204.17;;;3.38;67.63
50011;BME280;35899;50.352;19.390;2023-04-28T01:04:29;98204.64;;;3.39;67.77
50011;BME280;35899;50.352;19.390;2023-04-28T01:06:56;98207.69;;;3.40;67.97
50011;BME280;35899;50.352;19.390;2023-04-28T01:09:27;98206.63;;;3.41;67.92
50011;BME280;35899;50.352;19.390;2023-04-28T01:11:54;98211.71;;;3.42;67.95
50011;BME280;35899;50.352;19.390;2023-04-28T01:14:39;98215.47;;;3.42;67.87
50011;BME280;35899;50.352;19.390;2023-04-28T01:17:06;98213.16;;;3.44;67.68
50011;BME280;35899;50.352;19.390;2023-04-28T01:19:33;98211.30;;;3.44;67.74
50011;BME280;35899;50.352;19.390;2023-04-28T01:22:00;98210.05;;;3.41;67.86
50011;BME280;35899;50.352;19.390;2023-04-28T01:24:27;98215.84;;;3.41;67.71
50011;BME280;35899;50.352;19.390;2023-04-28T01:26:55;98211.39;;;3.41;68.08
50011;BME280;35899;50.352;19.390;2023-04-28T01:29:22;98206.35;;;3.39;68.21
50011;BME280;35899;50.352;19.390;2023-04-28T01:31:49;98207.95;;;3.37;68.26
50011;BME280;35899;50.352;19.390;2023-04-28T01:34:16;98206.57;;;3.38;68.10
50011;BME280;35899;50.352;19.390;2023-04-28T01:36:43;98206.59;;;3.37;68.06
50011;BME280;35899;50.352;19.390;2023-04-28T01:39:09;98206.20;;;3.29;68.08
50011;BME280;35899;50.352;19.390;2023-04-28T01:41:36;98207.54;;;3.20;68.35
50011;BME280;35899;50.352;19.390;2023-04-28T01:44:03;98205.91;;;3.13;68.62
50011;BME280;35899;50.352;19.390;2023-04-28T01:46:30;98203.81;;;3.09;68.75
50011;BME280;35899;50.352;19.390;2023-04-28T01:48:57;98206.44;;;3.08;68.89
50011;BME280;35899;50.352;19.390;2023-04-28T01:51:23;98201.55;;;3.06;68.93
50011;BME280;35899;50.352;19.390;2023-04-28T01:53:50;98199.84;;;3.01;69.27
50011;BME280;35899;50.352;19.390;2023-04-28T01:56:17;98201.05;;;2.96;69.55
50011;BME280;35899;50.352;19.390;2023-04-28T01:58:43;98204.19;;;2.89;69.47
50011;BME280;35899;50.352;19.390;2023-04-28T02:01:10;98204.98;;;2.86;69.48
50011;BME280;35899;50.352;19.390;2023-04-28T02:03:38;98206.02;;;2.85;69.53
50011;BME280;35899;50.352;19.390;2023-04-28T02:06:04;98202.08;;;2.86;69.72
50011;BME280;35899;50.352;19.390;2023-04-28T02:08:31;98200.03;;;2.86;69.82
50011;BME280;35899;50.352;19.390;2023-04-28T02:10:57;98211.90;;;2.88;69.57
50011;BME280;35899;50.352;19.390;2023-04-28T02:13:24;98208.40;;;2.90;69.54
50011;BME280;35899;50.352;19.390;2023-04-28T02:15:52;98210.19;;;2.93;69.61
50011;BME280;35899;50.352;19.390;2023-04-28T02:18:20;98208.04;;;2.91;69.72
50011;BME280;35899;50.352;19.390;2023-04-28T02:20:46;98207.89;;;2.86;69.77
50011;BME280;35899;50.352;19.390;2023-04-28T02:23:13;98211.16;;;2.80;69.81
50011;BME280;35899;50.352;19.390;2023-04-28T02:25:39;98208.09;;;2.75;70.03
50011;BME280;35899;50.352;19.390;2023-04-28T02:28:05;98208.73;;;2.71;70.33
50011;BME280;35899;50.352;19.390;2023-04-28T02:30:33;98201.23;;;2.66;70.52
50011;BME280;35899;50.352;19.390;2023-04-28T02:33:00;98198.86;;;2.60;70.48
50011;BME280;35899;50.352;19.390;2023-04-28T02:35:27;98198.66;;;2.55;70.50
50011;BME280;35899;50.352;19.390;2023-04-28T02:37:53;98196.98;;;2.54;70.75
50011;BME280;35899;50.352;19.390;2023-04-28T02:40:20;98193.30;;;2.52;70.69
50011;BME280;35899;50.352;19.390;2023-04-28T02:42:47;98194.74;;;2.44;70.35
50011;BME280;35899;50.352;19.390;2023-04-28T02:45:13;98191.77;;;2.31;70.49
50011;BME280;35899;50.352;19.390;2023-04-28T02:47:40;98191.85;;;2.23;70.83
50011;BME280;35899;50.352;19.390;2023-04-28T02:50:07;98191.36;;;2.17;71.17
50011;BME280;35899;50.352;19.390;2023-04-28T02:52:33;98190.89;;;2.11;71.42
50011;BME280;35899;50.352;19.390;2023-04-28T02:55:00;98188.45;;;2.07;71.71
50011;BME280;35899;50.352;19.390;2023-04-28T02:57:27;98186.17;;;2.04;71.81
50011;BME280;35899;50.352;19.390;2023-04-28T02:59:53;98193.04;;;2.02;71.92
50011;BME280;35899;50.352;19.390;2023-04-28T03:02:20;98190.30;;;2.02;72.01
50011;BME280;35899;50.352;19.390;2023-04-28T03:04:47;98191.83;;;2.03;72.14
50011;BME280;35899;50.352;19.390;2023-04-28T03:07:13;98185.39;;;2.01;72.18
50011;BME280;35899;50.352;19.390;2023-04-28T03:09:40;98187.35;;;1.98;72.14
50011;BME280;35899;50.352;19.390;2023-04-28T03:12:08;98183.85;;;1.90;72.09
50011;BME280;35899;50.352;19.390;2023-04-28T03:14:35;98180.37;;;1.82;72.13
50011;BME280;35899;50.352;19.390;2023-04-28T03:17:01;98181.20;;;1.76;72.39
50011;BME280;35899;50.352;19.390;2023-04-28T03:19:27;98183.75;;;1.71;72.49
50011;BME280;35899;50.352;19.390;2023-04-28T03:21:55;98182.88;;;1.66;72.61
50011;BME280;35899;50.352;19.390;2023-04-28T03:24:21;98185.66;;;1.64;72.67
50011;BME280;35899;50.352;19.390;2023-04-28T03:26:49;98192.34;;;1.64;72.88
50011;BME280;35899;50.352;19.390;2023-04-28T03:29:16;98190.98;;;1.63;72.93
50011;BME280;35899;50.352;19.390;2023-04-28T03:31:42;98190.70;;;1.62;72.90
50011;BME280;35899;50.352;19.390;2023-04-28T03:34:09;98188.36;;;1.60;73.00
50011;BME280;35899;50.352;19.390;2023-04-28T03:36:36;98185.50;;;1.59;73.12
50011;BME280;35899;50.352;19.390;2023-04-28T03:39:07;98188.62;;;1.57;73.33
50011;BME280;35899;50.352;19.390;2023-04-28T03:41:34;98187.61;;;1.56;73.44
50011;BME280;35899;50.352;19.390;2023-04-28T03:44:19;98185.90;;;1.56;73.65
50011;BME280;35899;50.352;19.390;2023-04-28T03:46:47;98183.48;;;1.58;73.73
50011;BME280;35899;50.352;19.390;2023-04-28T03:49:17;98179.57;;;1.57;73.67
50011;BME280;35899;50.352;19.390;2023-04-28T03:51:44;98181.00;;;1.55;73.65
50011;BME280;35899;50.352;19.390;2023-04-28T03:54:10;98182.04;;;1.54;73.67
50011;BME280;35899;50.352;19.390;2023-04-28T03:56:37;98182.02;;;1.54;73.85
50011;BME280;35899;50.352;19.390;2023-04-28T03:59:03;98182.95;;;1.58;73.72
50011;BME280;35899;50.352;19.390;2023-04-28T04:01:30;98184.79;;;1.65;73.84
50011;BME280;35899;50.352;19.390;2023-04-28T04:03:56;98182.31;;;1.73;73.89
50011;BME280;35899;50.352;19.390;2023-04-28T04:06:24;98180.92;;;1.80;73.82
50011;BME280;35899;50.352;19.390;2023-04-28T04:08:50;98179.24;;;1.84;73.61
50011;BME280;35899;50.352;19.390;2023-04-28T04:11:17;98178.80;;;1.93;73.65
50011;BME280;35899;50.352;19.390;2023-04-28T04:13:43;98179.96;;;2.00;73.39
50011;BME280;35899;50.352;19.390;2023-04-28T04:16:14;98177.48;;;2.08;73.53
50011;BME280;35899;50.352;19.390;2023-04-28T04:18:41;98178.33;;;2.19;73.43
50011;BME280;35899;50.352;19.390;2023-04-28T04:21:18;98180.04;;;2.35;73.67
50011;BME280;35899;50.352;19.390;2023-04-28T04:23:45;98182.25;;;2.50;73.55
50011;BME280;35899;50.352;19.390;2023-04-28T04:26:12;98182.95;;;2.66;73.46
50011;BME280;35899;50.352;19.390;2023-04-28T04:28:39;98183.98;;;2.76;73.16
50011;BME280;35899;50.352;19.390;2023-04-28T04:31:09;98184.90;;;2.83;72.96
50011;BME280;35899;50.352;19.390;2023-04-28T04:33:35;98183.03;;;2.93;72.93
50011;BME280;35899;50.352;19.390;2023-04-28T04:36:03;98184.89;;;3.04;72.92
50011;BME280;35899;50.352;19.390;2023-04-28T04:38:32;98179.73;;;3.19;72.81
50011;BME280;35899;50.352;19.390;2023-04-28T04:41:07;98180.28;;;3.31;72.59
50011;BME280;35899;50.352;19.390;2023-04-28T04:43:34;98182.84;;;3.45;72.65
50011;BME280;35899;50.352;19.390;2023-04-28T04:46:01;98179.86;;;3.61;72.43
50011;BME280;35899;50.352;19.390;2023-04-28T04:48:28;98180.95;;;3.78;72.42
50011;BME280;35899;50.352;19.390;2023-04-28T04:50:57;98185.13;;;3.94;71.91
50011;BME280;35899;50.352;19.390;2023-04-28T04:53:24;98184.57;;;4.08;71.61
50011;BME280;35899;50.352;19.390;2023-04-28T04:55:52;98187.41;;;4.26;71.76
50011;BME280;35899;50.352;19.390;2023-04-28T04:58:20;98186.75;;;4.47;71.45
50011;BME280;35899;50.352;19.390;2023-04-28T05:01:13;98187.96;;;4.67;71.19
50011;BME280;35899;50.352;19.390;2023-04-28T05:03:40;98190.89;;;4.83;70.96
50011;BME280;35899;50.352;19.390;2023-04-28T05:06:07;98188.35;;;4.98;70.22
50011;BME280;35899;50.352;19.390;2023-04-28T05:08:43;98190.67;;;5.04;69.73
50011;BME280;35899;50.352;19.390;2023-04-28T05:11:10;98193.38;;;5.05;69.58
50011;BME280;35899;50.352;19.390;2023-04-28T05:13:37;98194.60;;;5.08;69.75
50011;BME280;35899;50.352;19.390;2023-04-28T05:16:06;98190.98;;;5.13;69.63
50011;BME280;35899;50.352;19.390;2023-04-28T05:18:52;98198.58;;;5.20;69.81
50011;BME280;35899;50.352;19.390;2023-04-28T05:21:19;98196.41;;;5.22;69.97
50011;BME280;35899;50.352;19.390;2023-04-28T05:23:47;98196.91;;;5.26;70.20
50011;BME280;35899;50.352;19.390;2023-04-28T05:26:14;98200.02;;;5.34;70.06
50011;BME280;35899;50.352;19.390;2023-04-28T05:28:40;98199.93;;;5.47;70.46
50011;BME280;35899;50.352;19.390;2023-04-28T05:31:07;98199.40;;;5.67;70.46
50011;BME280;35899;50.352;19.390;2023-04-28T05:33:34;98202.66;;;5.74;70.12
50011;BME280;35899;50.352;19.390;2023-04-28T05:36:00;98197.61;;;5.87;69.80
50011;BME280;35899;50.352;19.390;2023-04-28T05:38:28;98200.07;;;5.93;69.67
50011;BME280;35899;50.352;19.390;2023-04-28T05:40:55;98198.08;;;5.96;69.41
50011;BME280;35899;50.352;19.390;2023-04-28T05:43:21;98199.00;;;6.06;69.61
50011;BME280;35899;50.352;19.390;2023-04-28T05:45:48;98196.69;;;6.22;69.46
50011;BME280;35899;50.352;19.390;2023-04-28T05:48:15;98191.89;;;6.39;69.17
50011;BME280;35899;50.352;19.390;2023-04-28T05:50:42;98192.70;;;6.54;68.82
50011;BME280;35899;50.352;19.390;2023-04-28T05:53:09;98192.02;;;6.67;68.77
50011;BME280;35899;50.352;19.390;2023-04-28T05:55:36;98196.08;;;6.86;68.70
50011;BME280;35899;50.352;19.390;2023-04-28T05:58:04;98190.39;;;7.03;68.24
50011;BME280;35899;50.352;19.390;2023-04-28T06:00:31;98188.48;;;7.20;67.73
50011;BME280;35899;50.352;19.390;2023-04-28T06:02:58;98192.03;;;7.38;67.18
50011;BME280;35899;50.352;19.390;2023-04-28T06:05:25;98192.95;;;7.57;66.87
50011;BME280;35899;50.352;19.390;2023-04-28T06:07:54;98191.27;;;7.75;66.52
50011;BME280;35899;50.352;19.390;2023-04-28T06:10:22;98190.28;;;7.93;65.66
50011;BME280;35899;50.352;19.390;2023-04-28T06:12:48;98191.75;;;8.07;64.89
50011;BME280;35899;50.352;19.390;2023-04-28T06:15:15;98189.68;;;8.22;64.45
50011;BME280;35899;50.352;19.390;2023-04-28T06:17:42;98189.97;;;8.39;63.96
50011;BME280;35899;50.352;19.390;2023-04-28T06:20:08;98190.48;;;8.49;62.58
50011;BME280;35899;50.352;19.390;2023-04-28T06:22:36;98190.73;;;8.56;62.35
50011;BME280;35899;50.352;19.390;2023-04-28T06:25:03;98189.00;;;8.74;62.87
50011;BME280;35899;50.352;19.390;2023-04-28T06:27:34;98186.79;;;8.97;62.55
50011;BME280;35899;50.352;19.390;2023-04-28T06:30:01;98185.41;;;9.17;61.95
50011;BME280;35899;50.352;19.390;2023-04-28T06:32:27;98185.75;;;9.35;61.43
50011;BME280;35899;50.352;19.390;2023-04-28T06:34:54;98184.31;;;9.52;61.12
50011;BME280;35899;50.352;19.390;2023-04-28T06:37:23;98185.23;;;9.68;60.71
50011;BME280;35899;50.352;19.390;2023-04-28T06:39:49;98184.02;;;9.85;60.59
50011;BME280;35899;50.352;19.390;2023-04-28T06:42:16;98180.56;;;9.96;59.64
50011;BME280;35899;50.352;19.390;2023-04-28T06:44:43;98179.46;;;10.00;57.19
50011;BME280;35899;50.352;19.390;2023-04-28T06:47:10;98178.26;;;9.99;56.24
50011;BME280;35899;50.352;19.390;2023-04-28T06:49:38;98175.54;;;10.07;56.77
50011;BME280;35899;50.352;19.390;2023-04-28T06:52:04;98172.24;;;10.20;56.54
50011;BME280;35899;50.352;19.390;2023-04-28T06:54:31;98175.30;;;10.32;55.81
50011;BME280;35899;50.352;19.390;2023-04-28T06:56:58;98175.53;;;10.40;54.74
50011;BME280;35899;50.352;19.390;2023-04-28T06:59:26;98176.58;;;10.48;54.44
50011;BME280;35899;50.352;19.390;2023-04-28T07:01:52;98173.45;;;10.61;55.06
50011;BME280;35899;50.352;19.390;2023-04-28T07:04:19;98175.09;;;10.78;54.59
50011;BME280;35899;50.352;19.390;2023-04-28T07:06:46;98172.63;;;10.89;53.09
50011;BME280;35899;50.352;19.390;2023-04-28T07:09:13;98171.33;;;11.01;52.84
50011;BME280;35899;50.352;19.390;2023-04-28T07:11:40;98167.38;;;11.12;51.92
50011;BME280;35899;50.352;19.390;2023-04-28T07:14:07;98168.91;;;11.21;51.02
50011;BME280;35899;50.352;19.390;2023-04-28T07:16:34;98162.98;;;11.29;51.00
50011;BME280;35899;50.352;19.390;2023-04-28T07:19:01;98165.60;;;11.44;50.18
50011;BME280;35899;50.352;19.390;2023-04-28T07:21:28;98163.83;;;11.59;50.02
50011;BME280;35899;50.352;19.390;2023-04-28T07:23:55;98160.39;;;11.76;49.67
50011;BME280;35899;50.352;19.390;2023-04-28T07:26:22;98160.11;;;11.94;49.48
50011;BME280;35899;50.352;19.390;2023-04-28T07:28:49;98156.52;;;12.05;46.84
50011;BME280;35899;50.352;19.390;2023-04-28T07:31:18;98154.06;;;12.06;46.29
50011;BME280;35899;50.352;19.390;2023-04-28T07:33:49;98150.92;;;12.11;45.32
50011;BME280;35899;50.352;19.390;2023-04-28T07:36:16;98150.18;;;12.14;45.24
50011;BME280;35899;50.352;19.390;2023-04-28T07:38:43;98144.34;;;12.21;45.67
50011;BME280;35899;50.352;19.390;2023-04-28T07:41:09;98143.80;;;12.23;43.89
50011;BME280;35899;50.352;19.390;2023-04-28T07:43:37;98141.84;;;12.29;44.79
50011;BME280;35899;50.352;19.390;2023-04-28T07:46:05;98142.58;;;12.42;44.07
50011;BME280;35899;50.352;19.390;2023-04-28T07:48:34;98139.95;;;12.54;44.22
50011;BME280;35899;50.352;19.390;2023-04-28T07:51:01;98137.55;;;12.73;44.15
50011;BME280;35899;50.352;19.390;2023-04-28T07:53:28;98143.58;;;12.89;43.01
50011;BME280;35899;50.352;19.390;2023-04-28T07:55:57;98142.59;;;12.93;42.05
50011;BME280;35899;50.352;19.390;2023-04-28T07:58:25;98139.49;;;12.99;41.67
50011;BME280;35899;50.352;19.390;2023-04-28T08:00:51;98142.69;;;13.05;40.56
50011;BME280;35899;50.352;19.390;2023-04-28T08:03:21;98145.09;;;12.99;39.24
50011;BME280;35899;50.352;19.390;2023-04-28T08:05:49;98140.34;;;12.95;40.00
50011;BME280;35899;50.352;19.390;2023-04-28T08:08:15;98136.27;;;13.03;40.30
50011;BME280;35899;50.352;19.390;2023-04-28T08:10:42;98138.55;;;13.14;40.22
50011;BME280;35899;50.352;19.390;2023-04-28T08:13:09;98135.69;;;13.22;40.07
50011;BME280;35899;50.352;19.390;2023-04-28T08:15:36;98136.35;;;13.34;39.95
50011;BME280;35899;50.352;19.390;2023-04-28T08:18:03;98139.63;;;13.52;40.41
50011;BME280;35899;50.352;19.390;2023-04-28T08:20:30;98133.36;;;13.72;40.46
50011;BME280;35899;50.352;19.390;2023-04-28T08:22:56;98135.98;;;13.91;40.29
50011;BME280;35899;50.352;19.390;2023-04-28T08:25:23;98131.55;;;14.08;39.60
50011;BME280;35899;50.352;19.390;2023-04-28T08:27:50;98127.75;;;14.24;40.07
50011;BME280;35899;50.352;19.390;2023-04-28T08:30:17;98126.33;;;14.52;40.53
50011;BME280;35899;50.352;19.390;2023-04-28T08:32:44;98124.80;;;14.73;39.65
50011;BME280;35899;50.352;19.390;2023-04-28T08:35:11;98125.73;;;14.78;38.64
50011;BME280;35899;50.352;19.390;2023-04-28T08:37:38;98120.33;;;14.80;38.66
50011;BME280;35899;50.352;19.390;2023-04-28T08:40:05;98116.23;;;14.90;38.75
50011;BME280;35899;50.352;19.390;2023-04-28T08:42:37;98109.64;;;14.87;37.42
50011;BME280;35899;50.352;19.390;2023-04-28T08:45:04;98109.69;;;14.93;37.57
50011;BME280;35899;50.352;19.390;2023-04-28T08:47:35;98110.67;;;15.02;37.47
50011;BME280;35899;50.352;19.390;2023-04-28T08:50:03;98113.15;;;15.04;36.63
50011;BME280;35899;50.352;19.390;2023-04-28T08:52:30;98110.70;;;14.96;37.24
50011;BME280;35899;50.352;19.390;2023-04-28T08:54:57;98112.43;;;14.83;36.99
50011;BME280;35899;50.352;19.390;2023-04-28T08:57:28;98111.23;;;14.68;36.35
50011;BME280;35899;50.352;19.390;2023-04-28T08:59:56;98109.77;;;14.38;36.57
50011;BME280;35899;50.352;19.390;2023-04-28T09:02:23;98110.84;;;14.16;37.18
50011;BME280;35899;50.352;19.390;2023-04-28T09:04:51;98106.36;;;14.07;37.97
50011;BME280;35899;50.352;19.390;2023-04-28T09:07:18;98109.06;;;13.93;37.38
50011;BME280;35899;50.352;19.390;2023-04-28T09:09:45;98105.88;;;13.77;37.43
50011;BME280;35899;50.352;19.390;2023-04-28T09:12:11;98103.66;;;13.56;36.91
50011;BME280;35899;50.352;19.390;2023-04-28T09:14:38;98097.34;;;13.35;37.86
50011;BME280;35899;50.352;19.390;2023-04-28T09:17:12;98094.93;;;13.30;38.04
50011;BME280;35899;50.352;19.390;2023-04-28T09:19:39;98086.94;;;13.43;38.10
50011;BME280;35899;50.352;19.390;2023-04-28T09:22:06;98086.62;;;13.71;38.90
50011;BME280;35899;50.352;19.390;2023-04-28T09:24:50;98088.37;;;14.06;39.52
50011;BME280;35899;50.352;19.390;2023-04-28T09:27:20;98091.42;;;14.21;37.91
50011;BME280;35899;50.352;19.390;2023-04-28T09:29:52;98086.77;;;14.30;37.21
50011;BME280;35899;50.352;19.390;2023-04-28T09:32:20;98086.06;;;14.34;37.42
50011;BME280;35899;50.352;19.390;2023-04-28T09:34:48;98080.38;;;14.35;37.57
50011;BME280;35899;50.352;19.390;2023-04-28T09:37:19;98073.08;;;14.67;38.61
50011;BME280;35899;50.352;19.390;2023-04-28T09:39:47;98071.02;;;15.03;38.08
50011;BME280;35899;50.352;19.390;2023-04-28T09:42:30;98062.48;;;15.23;36.52
50011;BME280;35899;50.352;19.390;2023-04-28T09:44:56;98061.21;;;15.40;36.31
50011;BME280;35899;50.352;19.390;2023-04-28T09:47:23;98061.99;;;15.53;36.29
50011;BME280;35899;50.352;19.390;2023-04-28T09:49:53;98059.40;;;15.60;37.02
50011;BME280;35899;50.352;19.390;2023-04-28T09:52:21;98055.48;;;15.66;36.22
50011;BME280;35899;50.352;19.390;2023-04-28T09:54:49;98051.95;;;15.91;35.89
50011;BME280;35899;50.352;19.390;2023-04-28T09:57:16;98045.27;;;16.47;35.86
50011;BME280;35899;50.352;19.390;2023-04-28T09:59:47;98043.98;;;17.16;34.69
50011;BME280;35899;50.352;19.390;2023-04-28T10:02:15;98041.12;;;17.82;34.67
50011;BME280;35899;50.352;19.390;2023-04-28T10:05:02;98031.67;;;18.66;34.28
50011;BME280;35899;50.352;19.390;2023-04-28T10:07:31;98024.98;;;19.15;33.77
50011;BME280;35899;50.352;19.390;2023-04-28T10:09:57;98026.45;;;19.06;33.15
50011;BME280;35899;50.352;19.390;2023-04-28T10:12:26;98024.24;;;19.23;32.31
50011;BME280;35899;50.352;19.390;2023-04-28T10:14:53;98022.05;;;19.29;31.92
50011;BME280;35899;50.352;19.390;2023-04-28T10:17:23;98013.48;;;19.04;32.65
50011;BME280;35899;50.352;19.390;2023-04-28T10:19:51;98010.36;;;19.32;33.14
50011;BME280;35899;50.352;19.390;2023-04-28T10:27:34;98000.45;;;19.59;31.03
50011;BME280;35899;50.352;19.390;2023-04-28T10:30:17;97999.55;;;19.27;31.14
50011;BME280;35899;50.352;19.390;2023-04-28T10:35:46;97999.20;;;20.45;30.37
50011;BME280;35899;50.352;19.390;2023-04-28T10:38:13;97994.69;;;20.64;29.83
50011;BME280;35899;50.352;19.390;2023-04-28T10:40:43;97989.91;;;20.17;29.79
50011;BME280;35899;50.352;19.390;2023-04-28T10:43:11;97986.06;;;20.54;29.67
50011;BME280;35899;50.352;19.390;2023-04-28T10:54:05;97977.89;;;23.71;27.29
50011;BME280;35899;50.352;19.390;2023-04-28T10:56:14;97975.77;;;23.75;25.45
50011;BME280;35899;50.352;19.390;2023-04-28T10:58:43;97971.49;;;23.97;26.21
50011;BME280;35899;50.352;19.390;2023-04-28T11:08:52;97968.40;;;25.22;24.70
50011;BME280;35899;50.352;19.390;2023-04-28T11:11:19;97969.36;;;25.48;24.91
50011;BME280;35899;50.352;19.390;2023-04-28T11:13:46;97966.36;;;26.24;24.35
50011;BME280;35899;50.352;19.390;2023-04-28T11:16:16;97958.17;;;26.97;24.09
50011;BME280;35899;50.352;19.390;2023-04-28T11:18:47;97961.36;;;26.30;23.98
50011;BME280;35899;50.352;19.390;2023-04-28T11:21:14;97957.58;;;26.14;23.83
50011;BME280;35899;50.352;19.390;2023-04-28T11:23:41;97948.91;;;26.88;22.89
50011;BME280;35899;50.352;19.390;2023-04-28T11:26:08;97950.33;;;27.52;22.97
50011;BME280;35899;50.352;19.390;2023-04-28T11:28:35;97945.23;;;28.14;22.32
50011;BME280;35899;50.352;19.390;2023-04-28T11:31:09;97939.63;;;28.66;22.33
50011;BME280;35899;50.352;19.390;2023-04-28T11:33:37;97931.54;;;29.23;22.30
50011;BME280;35899;50.352;19.390;2023-04-28T11:36:04;97937.31;;;29.77;22.25
50011;BME280;35899;50.352;19.390;2023-04-28T11:39:05;97939.23;;;30.08;21.32
50011;BME280;35899;50.352;19.390;2023-04-28T11:41:27;97942.05;;;30.17;20.46
50011;BME280;35899;50.352;19.390;2023-04-28T11:43:54;97941.31;;;30.23;20.54
50011;BME280;35899;50.352;19.390;2023-04-28T11:46:23;97932.08;;;29.10;20.62
50011;BME280;35899;50.352;19.390;2023-04-28T11:49:04;97918.02;;;28.84;19.02
50011;BME280;35899;50.352;19.390;2023-04-28T11:51:32;97921.69;;;28.87;19.84
50011;BME280;35899;50.352;19.390;2023-04-28T11:53:59;97922.20;;;29.67;20.84
50011;BME280;35899;50.352;19.390;2023-04-28T11:56:26;97918.17;;;30.41;19.63
50011;BME280;35899;50.352;19.390;2023-04-28T11:59:08;97910.04;;;31.02;20.13
50011;BME280;35899;50.352;19.390;2023-04-28T12:04:11;97904.80;;;32.09;18.78
50011;BME280;35899;50.352;19.390;2023-04-28T12:06:39;97907.11;;;32.59;18.88
50011;BME280;35899;50.352;19.390;2023-04-28T12:09:19;97898.63;;;32.98;18.59
50011;BME280;35899;50.352;19.390;2023-04-28T12:11:56;97896.48;;;33.05;18.38
50011;BME280;35899;50.352;19.390;2023-04-28T12:14:25;97896.05;;;31.77;19.37
50011;BME280;35899;50.352;19.390;2023-04-28T12:16:53;97895.97;;;31.80;19.85
50011;BME280;35899;50.352;19.390;2023-04-28T12:19:20;97893.29;;;32.93;19.49
50011;BME280;35899;50.352;19.390;2023-04-28T12:22:01;97890.18;;;33.56;18.90
50011;BME280;35899;50.352;19.390;2023-04-28T12:24:28;97890.09;;;33.58;19.10
50011;BME280;35899;50.352;19.390;2023-04-28T12:27:15;97887.39;;;34.31;18.61
50011;BME280;35899;50.352;19.390;2023-04-28T12:29:43;97879.54;;;34.99;18.38
50011;BME280;35899;50.352;19.390;2023-04-28T12:32:10;97879.05;;;35.42;17.39
50011;BME280;35899;50.352;19.390;2023-04-28T12:34:39;97875.21;;;35.50;16.41
50011;BME280;35899;50.352;19.390;2023-04-28T12:37:07;97872.45;;;35.18;15.75
50011;BME280;35899;50.352;19.390;2023-04-28T12:39:34;97872.86;;;35.12;16.36
50011;BME280;35899;50.352;19.390;2023-04-28T12:42:07;97878.09;;;35.04;15.40
50011;BME280;35899;50.352;19.390;2023-04-28T12:44:35;97870.96;;;34.95;16.28
50011;BME280;35899;50.352;19.390;2023-04-28T12:47:07;97871.21;;;35.41;16.31
50011;BME280;35899;50.352;19.390;2023-04-28T12:49:54;97858.84;;;36.00;16.07
50011;BME280;35899;50.352;19.390;2023-04-28T12:52:21;97858.73;;;36.24;16.35
50011;BME280;35899;50.352;19.390;2023-04-28T12:54:51;97860.05;;;36.66;16.77
50011;BME280;35899;50.352;19.390;2023-04-28T12:57:19;97856.04;;;37.27;16.64
50011;BME280;35899;50.352;19.390;2023-04-28T12:59:50;97852.67;;;37.60;15.92
50011;BME280;35899;50.352;19.390;2023-04-28T13:02:21;97841.82;;;37.64;15.39
50011;BME280;35899;50.352;19.390;2023-04-28T13:04:48;97836.84;;;37.56;15.50
50011;BME280;35899;50.352;19.390;2023-04-28T13:07:23;97836.93;;;37.76;15.68
50011;BME280;35899;50.352;19.390;2023-04-28T13:09:59;97833.15;;;37.90;15.10
50011;BME280;35899;50.352;19.390;2023-04-28T13:12:50;97835.94;;;37.54;14.98
50011;BME280;35899;50.352;19.390;2023-04-28T13:15:19;97834.42;;;37.46;15.35
50011;BME280;35899;50.352;19.390;2023-04-28T13:18:13;97828.75;;;37.96;15.63
50011;BME280;35899;50.352;19.390;2023-04-28T13:20:45;97825.27;;;38.14;14.84
50011;BME280;35899;50.352;19.390;2023-04-28T13:23:12;97827.26;;;37.55;14.00
50011;BME280;35899;50.352;19.390;2023-04-28T13:25:42;97831.42;;;36.97;14.00
50011;BME280;35899;50.352;19.390;2023-04-28T13:28:08;97827.33;;;37.17;14.95